Raleigh Durham International Airport Raleigh,Durham US
ICAO: KRDU
IATA: RDU
Category: Large
Scheduled Services: Yes

Elevation: 435 ft
TransAlt. 18000 ft.

Airport Communications:
APP:124.8
ATIS:123.8
CLNC DEL:120.1
DEP:125.3
GND:121.7
ARNG OPS:49.15
RDO:122.2
TWR:119.3
UNICOM:122.95

KRDU Zoom In..

Runways:

(A) RW 05L length 10000 ft width 150 ft
ILS 109.10 / hdg 52

(B) RW 05R length 7500 ft width 150 ft
ILS 109.50 / hdg 52

(C) RW 14 length 3570 ft width 100 ft
---- / hdg 142

(D) RW 23L length 7500 ft width 150 ft
ILS 108.50 / hdg 232

(E) RW 23R length 10000 ft width 150 ft
ILS 111.70 / hdg 232

(F) RW 32 length 3570 ft width 100 ft
---- / hdg 322

Location; KRDU
Day. 03 / Time. 09.51 Zulu
* Altimeter: 30.30
* Temperature: -03° c. -26.6°f.
* Wind from: 000° Speed 00 kn.
Dewpoint: -04° c.
Visibility: 10 Statute Miles.
Clouds: Few 25000 ft.

KRDU 030951Z 00000KT 10SM FEW250 M03/M04 A3030 RMK AO2 SLP262 T10281044

Going to: --> -->


Wind - Calm.

 
 
jpsmedia worldairports.se 2020   terms of use